createdAt,value
2022-12-11T00:06:33.220Z,99.90
2022-12-11T00:10:27.573Z,99.90
2022-12-11T00:17:21.320Z,99.90
2022-12-11T00:24:27.461Z,99.90
2022-12-11T00:31:53.591Z,99.90
2022-12-11T00:35:55.626Z,99.90
2022-12-11T00:43:24.165Z,99.90
2022-12-11T01:18:07.871Z,99.90
2022-12-11T01:22:10.252Z,99.90
2022-12-11T01:33:32.945Z,99.90
2022-12-11T01:40:36.421Z,99.90
2022-12-11T01:52:27.517Z,99.90
2022-12-11T02:08:45.718Z,99.90
2022-12-11T02:12:47.223Z,99.90
2022-12-11T02:16:44.726Z,99.90
2022-12-11T02:24:27.299Z,99.90
2022-12-11T02:48:14.924Z,99.90
2022-12-11T02:56:05.600Z,99.90
2022-12-11T03:12:00.421Z,99.90
2022-12-11T03:23:35.897Z,99.90
2022-12-11T03:27:28.189Z,99.90
2022-12-11T03:43:08.005Z,99.90
2022-12-11T03:46:23.277Z,99.70
2022-12-11T03:49:19.829Z,99.90
2022-12-11T03:57:00.935Z,99.90
2022-12-11T04:01:08.647Z,99.90
2022-12-11T04:12:24.650Z,99.90
2022-12-11T04:19:32.532Z,99.90
2022-12-11T04:38:15.302Z,99.90
2022-12-11T04:42:17.631Z,99.90
2022-12-11T04:49:10.099Z,99.90
2022-12-11T04:52:57.434Z,99.90
2022-12-11T04:59:51.889Z,99.90
2022-12-11T05:03:52.806Z,99.90
2022-12-11T05:15:19.829Z,99.90
2022-12-11T05:26:47.412Z,99.90
2022-12-11T05:30:46.303Z,99.90
2022-12-11T05:34:29.262Z,99.90
2022-12-11T05:41:51.815Z,99.90
2022-12-11T05:53:28.990Z,99.90
2022-12-11T05:57:56.965Z,99.90
2022-12-11T06:13:00.942Z,99.90
2022-12-11T06:19:43.635Z,99.90
2022-12-11T06:27:17.148Z,99.90
2022-12-11T06:43:09.375Z,99.90
2022-12-11T06:54:15.550Z,99.90
2022-12-11T07:13:03.875Z,99.90
2022-12-11T07:17:08.540Z,99.90
2022-12-11T07:24:10.300Z,99.90
2022-12-11T07:31:33.115Z,99.90
2022-12-11T07:35:19.180Z,99.90
2022-12-11T07:49:54.377Z,99.90
2022-12-11T07:56:43.995Z,99.30
2022-12-11T08:07:56.523Z,99.90
2022-12-11T08:11:49.876Z,99.90
2022-12-11T08:18:50.236Z,99.90
2022-12-11T08:22:39.049Z,99.70
2022-12-11T08:37:57.982Z,99.70
2022-12-11T08:53:18.637Z,99.40
2022-12-11T09:00:23.735Z,99.40
2022-12-11T09:07:23.620Z,99.20
2022-12-11T09:21:35.574Z,98.50
2022-12-11T09:28:46.980Z,98.10
2022-12-11T09:32:56.167Z,97.80
2022-12-11T09:44:11.892Z,97.10
2022-12-11T09:50:46.839Z,97.40
2022-12-11T09:57:59.914Z,97.60
2022-12-11T10:12:42.263Z,97.20
2022-12-11T10:43:05.354Z,97.70
2022-12-11T10:54:37.659Z,97.60
2022-12-11T11:25:14.163Z,97.20
2022-12-11T11:53:19.497Z,96.30
2022-12-11T11:56:55.343Z,97.00
2022-12-11T12:22:55.580Z,96.50
2022-12-11T12:26:00.200Z,97.20
2022-12-11T12:50:20.174Z,96.70
2022-12-11T13:23:40.311Z,97.60
2022-12-11T13:39:19.255Z,96.80
2022-12-11T14:15:26.523Z,96.70
2022-12-11T14:18:49.406Z,97.30
2022-12-11T14:25:37.369Z,97.30
2022-12-11T14:32:36.657Z,97.30
2022-12-11T14:39:32.591Z,96.00
2022-12-11T14:46:19.436Z,97.20
2022-12-11T14:53:16.996Z,97.10
2022-12-11T15:00:18.683Z,96.60
2022-12-11T15:07:17.692Z,97.20
2022-12-11T15:14:13.567Z,97.90
2022-12-11T15:20:56.664Z,98.30
2022-12-11T15:27:44.050Z,98.10
2022-12-11T15:34:37.030Z,97.90
2022-12-11T15:41:29.856Z,98.30
2022-12-11T15:48:22.107Z,98.50
2022-12-11T15:55:17.124Z,98.60
2022-12-11T16:02:03.964Z,98.80
2022-12-11T16:08:53.767Z,98.60
2022-12-11T16:20:01.712Z,98.10
2022-12-11T16:26:43.100Z,98.40
2022-12-11T16:33:30.334Z,98.90
2022-12-11T16:40:43.493Z,98.90
2022-12-11T16:54:49.677Z,99.50
2022-12-11T17:01:35.242Z,99.40
2022-12-11T17:17:32.873Z,99.80
2022-12-11T17:30:24.998Z,99.90
2022-12-11T17:46:06.099Z,99.90
2022-12-11T17:49:54.762Z,99.90
2022-12-11T17:56:37.994Z,99.90
2022-12-11T18:03:33.079Z,99.90
2022-12-11T18:15:02.168Z,99.90
2022-12-11T18:19:04.839Z,99.90
2022-12-11T18:26:22.541Z,99.90
2022-12-11T18:30:18.250Z,99.90
2022-12-11T18:41:36.745Z,99.90
2022-12-11T18:48:24.808Z,99.90
2022-12-11T18:55:15.644Z,99.90
2022-12-11T19:01:57.450Z,99.90
2022-12-11T19:08:46.972Z,99.90
2022-12-11T19:19:26.309Z,99.90
2022-12-11T19:26:29.609Z,99.90
2022-12-11T19:33:18.622Z,99.90
2022-12-11T19:40:09.698Z,99.90
2022-12-11T19:47:15.380Z,99.90
2022-12-11T19:54:15.961Z,99.90
2022-12-11T20:01:10.449Z,99.90
2022-12-11T20:08:35.761Z,99.90
2022-12-11T20:12:18.214Z,99.90
2022-12-11T20:19:12.853Z,99.90
2022-12-11T20:26:01.649Z,99.90
2022-12-11T20:32:49.817Z,99.90
2022-12-11T20:39:38.020Z,99.90
2022-12-11T20:46:22.739Z,99.90
2022-12-11T20:53:18.722Z,99.90
2022-12-11T21:00:08.691Z,99.90
2022-12-11T21:06:57.300Z,99.90
2022-12-11T21:13:54.088Z,99.90
2022-12-11T21:20:48.352Z,99.90
2022-12-11T21:27:43.699Z,99.90
2022-12-11T21:34:31.237Z,99.90
2022-12-11T21:41:16.049Z,99.90
2022-12-11T21:48:20.725Z,99.90
2022-12-11T21:55:13.278Z,99.90
2022-12-11T22:01:41.010Z,99.90
2022-12-11T22:08:37.078Z,99.90
2022-12-11T22:12:22.101Z,99.90
2022-12-11T22:19:08.668Z,99.90
2022-12-11T22:22:49.101Z,99.90
2022-12-11T22:29:42.605Z,99.90
2022-12-11T22:36:33.128Z,99.90
2022-12-11T22:43:25.923Z,99.90
2022-12-11T22:50:22.664Z,99.90
2022-12-11T22:57:16.902Z,99.90
2022-12-11T23:04:06.722Z,99.90
2022-12-11T23:10:55.715Z,99.90
2022-12-11T23:17:45.748Z,99.90
2022-12-11T23:24:39.380Z,99.90
2022-12-11T23:35:41.319Z,99.90
2022-12-11T23:42:30.273Z,99.90
2022-12-11T23:49:48.463Z,99.90
2022-12-11T23:53:52.102Z,99.90
